createdAt,value
2022-10-26T00:00:45.858Z,21.35
2022-10-26T00:01:49.033Z,22.23
2022-10-26T00:02:51.332Z,23.02
2022-10-26T00:03:55.883Z,20.33
2022-10-26T00:04:58.680Z,21.05
2022-10-26T00:06:12.718Z,19.73
2022-10-26T00:07:14.470Z,22.65
2022-10-26T00:08:16.307Z,19.38
2022-10-26T00:09:18.249Z,23.75
2022-10-26T00:10:21.920Z,23.42
2022-10-26T00:11:24.598Z,19.13
2022-10-26T00:12:26.370Z,20.27
2022-10-26T00:13:28.430Z,22.20
2022-10-26T00:14:30.740Z,21.63
2022-10-26T00:15:33.095Z,19.80
2022-10-26T00:16:34.868Z,19.83
2022-10-26T00:17:36.966Z,18.10
2022-10-26T00:18:39.072Z,22.77
2022-10-26T00:19:40.907Z,17.17
2022-10-26T00:20:42.737Z,21.50
2022-10-26T00:21:44.737Z,21.17
2022-10-26T00:22:46.938Z,20.45
2022-10-26T00:23:49.211Z,24.42
2022-10-26T00:24:50.950Z,23.65
2022-10-26T00:25:57.309Z,22.70
2022-10-26T00:26:59.060Z,21.00
2022-10-26T00:28:00.992Z,23.90
2022-10-26T00:29:03.313Z,23.40
2022-10-26T00:30:06.773Z,21.83
2022-10-26T00:31:13.221Z,24.00
2022-10-26T00:32:15.411Z,22.77
2022-10-26T00:33:17.355Z,19.77
2022-10-26T00:34:19.279Z,20.27
2022-10-26T00:35:24.355Z,19.33
2022-10-26T00:36:42.937Z,20.55
2022-10-26T00:37:44.724Z,19.05
2022-10-26T00:38:54.475Z,15.15
2022-10-26T00:39:56.679Z,22.35
2022-10-26T00:41:00.282Z,23.27
2022-10-26T00:42:02.239Z,23.60
2022-10-26T00:43:04.130Z,22.08
2022-10-26T00:44:43.087Z,26.38
2022-10-26T00:45:46.333Z,19.27
2022-10-26T00:46:49.871Z,19.25
2022-10-26T00:48:15.901Z,19.70
2022-10-26T00:49:21.052Z,22.23
2022-10-26T00:50:32.073Z,25.00
2022-10-26T00:51:42.983Z,21.48
2022-10-26T00:52:45.652Z,18.88
2022-10-26T00:53:48.120Z,21.08
2022-10-26T00:54:50.812Z,20.67
2022-10-26T00:55:54.456Z,19.65
2022-10-26T00:56:56.352Z,20.10
2022-10-26T00:57:59.286Z,24.38
2022-10-26T00:59:05.692Z,25.23
2022-10-26T01:00:08.552Z,28.83
2022-10-26T01:01:10.511Z,20.95
2022-10-26T01:02:13.423Z,21.90
2022-10-26T01:03:17.312Z,20.33
2022-10-26T01:04:19.975Z,17.33
2022-10-26T01:05:21.999Z,24.05
2022-10-26T01:06:23.984Z,20.80
2022-10-26T01:07:27.466Z,25.13
2022-10-26T01:08:29.681Z,21.48
2022-10-26T01:09:33.576Z,20.52
2022-10-26T01:10:38.021Z,25.05
2022-10-26T01:11:39.877Z,27.88
2022-10-26T01:12:42.505Z,24.95
2022-10-26T01:13:46.397Z,23.05
2022-10-26T01:14:48.483Z,22.67
2022-10-26T01:16:02.726Z,28.05
2022-10-26T01:17:47.929Z,20.40
2022-10-26T01:19:05.207Z,23.98
2022-10-26T01:20:46.017Z,26.50
2022-10-26T01:22:08.557Z,25.02
2022-10-26T01:23:20.192Z,22.45
2022-10-26T01:24:55.387Z,22.17
2022-10-26T01:26:41.178Z,24.30
2022-10-26T01:27:48.572Z,24.98
2022-10-26T01:29:20.409Z,20.83
2022-10-26T01:30:30.782Z,20.15
2022-10-26T01:33:11.238Z,27.42
2022-10-26T01:34:24.688Z,20.58
2022-10-26T01:35:33.116Z,25.02
2022-10-26T01:36:45.184Z,19.98
2022-10-26T01:37:56.455Z,28.63
2022-10-26T01:40:13.326Z,23.08
2022-10-26T01:41:22.033Z,29.52
2022-10-26T01:42:26.147Z,27.63
2022-10-26T01:43:33.845Z,21.95
2022-10-26T01:44:43.396Z,23.60
2022-10-26T01:45:48.715Z,23.52
2022-10-26T01:46:53.524Z,31.15
2022-10-26T01:47:56.878Z,24.50
2022-10-26T01:49:04.540Z,27.35
2022-10-26T01:50:09.106Z,24.98
2022-10-26T01:51:13.214Z,25.05
2022-10-26T01:52:15.198Z,24.58
2022-10-26T01:53:19.681Z,27.90
2022-10-26T01:54:21.610Z,25.17
2022-10-26T01:55:45.389Z,27.42
2022-10-26T01:56:57.505Z,25.67
2022-10-26T01:58:13.833Z,25.40
2022-10-26T01:59:48.144Z,31.17
2022-10-26T02:01:17.005Z,27.90
2022-10-26T02:02:43.297Z,24.27
2022-10-26T02:03:57.234Z,25.15
2022-10-26T02:05:10.889Z,30.35
2022-10-26T02:06:25.278Z,24.80
2022-10-26T02:07:39.282Z,26.02
2022-10-26T02:08:50.141Z,26.15
2022-10-26T02:10:09.853Z,30.33
2022-10-26T02:11:21.105Z,25.92
2022-10-26T02:13:49.729Z,27.90
2022-10-26T02:15:31.168Z,24.50
2022-10-26T02:16:58.423Z,21.73
2022-10-26T02:18:18.419Z,26.10
2022-10-26T02:19:23.430Z,27.48
2022-10-26T02:20:30.738Z,29.13
2022-10-26T02:21:40.747Z,31.60
2022-10-26T02:22:51.516Z,27.33
2022-10-26T02:23:57.349Z,25.85
2022-10-26T02:25:04.518Z,24.70
2022-10-26T02:26:10.302Z,33.35
2022-10-26T02:27:17.569Z,37.47
2022-10-26T02:28:24.922Z,32.58
2022-10-26T02:29:29.715Z,25.63
2022-10-26T02:30:33.753Z,28.10
2022-10-26T02:31:38.223Z,31.45
2022-10-26T02:32:45.870Z,26.10
2022-10-26T02:33:51.018Z,31.08
2022-10-26T02:34:55.516Z,24.55
2022-10-26T02:36:00.833Z,34.92
2022-10-26T02:37:04.311Z,25.25
2022-10-26T02:38:11.607Z,22.35
2022-10-26T02:39:16.977Z,24.75
2022-10-26T02:40:24.650Z,28.17
2022-10-26T02:41:28.447Z,23.58
2022-10-26T02:42:32.062Z,24.92
2022-10-26T02:43:39.108Z,24.98
2022-10-26T02:44:48.045Z,22.70
2022-10-26T02:45:54.888Z,23.73
2022-10-26T02:46:57.358Z,29.50
2022-10-26T02:47:59.290Z,22.80
2022-10-26T02:49:01.493Z,27.27
2022-10-26T02:50:03.885Z,29.10
2022-10-26T02:51:18.669Z,27.00
2022-10-26T02:52:28.766Z,28.70
2022-10-26T02:53:41.729Z,25.38
2022-10-26T02:55:08.459Z,27.63
2022-10-26T02:56:18.346Z,24.25
2022-10-26T02:57:28.254Z,27.50
2022-10-26T02:58:35.389Z,29.52
2022-10-26T02:59:38.950Z,26.05
2022-10-26T03:00:44.080Z,31.17
2022-10-26T03:01:47.097Z,34.95
2022-10-26T03:02:57.486Z,35.65
2022-10-26T03:04:06.777Z,26.33
2022-10-26T03:05:23.708Z,29.27
2022-10-26T03:06:32.530Z,24.83
2022-10-26T03:07:34.907Z,34.60
2022-10-26T03:08:57.118Z,29.50
2022-10-26T03:10:18.197Z,26.73
2022-10-26T03:11:38.868Z,31.40
2022-10-26T03:12:40.712Z,26.85
2022-10-26T03:13:42.945Z,35.88
2022-10-26T03:14:45.310Z,33.15
2022-10-26T03:15:47.361Z,27.65
2022-10-26T03:16:49.258Z,26.83
2022-10-26T03:17:51.723Z,27.73
2022-10-26T03:18:54.033Z,28.30
2022-10-26T03:19:58.214Z,26.55
2022-10-26T03:21:01.251Z,27.30
2022-10-26T03:22:04.940Z,27.17
2022-10-26T03:23:07.201Z,30.90
2022-10-26T03:24:10.266Z,27.98
2022-10-26T03:25:13.499Z,25.92
2022-10-26T03:26:15.878Z,26.98
2022-10-26T03:27:19.807Z,25.85
2022-10-26T03:28:21.665Z,24.55
2022-10-26T03:29:23.598Z,27.75
2022-10-26T03:30:26.575Z,27.20
2022-10-26T03:31:28.710Z,30.00
2022-10-26T03:32:31.255Z,25.85
2022-10-26T03:33:33.925Z,26.95
2022-10-26T03:34:41.283Z,24.42
2022-10-26T03:35:44.271Z,25.73
2022-10-26T03:36:51.209Z,30.85
2022-10-26T03:37:55.315Z,36.80
2022-10-26T03:38:58.817Z,34.05
2022-10-26T03:40:01.078Z,30.90
2022-10-26T03:41:08.572Z,37.83
2022-10-26T03:42:10.851Z,33.92
2022-10-26T03:43:15.312Z,28.85
2022-10-26T03:44:17.147Z,28.60
2022-10-26T03:45:19.017Z,35.25
2022-10-26T03:46:23.249Z,30.83
2022-10-26T03:47:25.097Z,31.38
2022-10-26T03:48:27.295Z,28.50
2022-10-26T03:49:29.141Z,32.08
2022-10-26T03:50:31.404Z,34.25
2022-10-26T03:51:33.323Z,29.20
2022-10-26T03:52:35.678Z,28.77
2022-10-26T03:53:37.866Z,29.67
2022-10-26T03:54:40.712Z,26.95
2022-10-26T03:55:45.946Z,31.00
2022-10-26T03:56:51.250Z,27.95
2022-10-26T03:57:56.070Z,32.67
2022-10-26T03:58:58.079Z,29.30
2022-10-26T03:59:59.862Z,36.67
2022-10-26T04:01:01.817Z,30.85
2022-10-26T04:02:08.924Z,30.85
2022-10-26T04:03:12.717Z,32.08
2022-10-26T04:04:15.696Z,29.38
2022-10-26T04:05:17.766Z,34.22
2022-10-26T04:06:20.069Z,29.98
2022-10-26T04:07:22.693Z,31.00
2022-10-26T04:08:24.810Z,30.42
2022-10-26T04:09:26.810Z,30.83
2022-10-26T04:10:29.633Z,29.90
2022-10-26T04:11:31.653Z,37.38
2022-10-26T04:12:37.725Z,27.10
2022-10-26T04:13:39.551Z,32.33
2022-10-26T04:14:41.358Z,29.00
2022-10-26T04:15:43.452Z,32.25
2022-10-26T04:16:45.299Z,27.00
2022-10-26T04:17:49.312Z,36.42
2022-10-26T04:18:53.743Z,31.77
2022-10-26T04:21:19.993Z,32.75
2022-10-26T04:22:27.848Z,30.10
2022-10-26T04:23:31.383Z,25.92
2022-10-26T04:24:33.240Z,34.45
2022-10-26T04:25:35.187Z,31.27
2022-10-26T04:26:37.478Z,37.30
2022-10-26T04:27:39.420Z,38.13
2022-10-26T04:28:43.849Z,34.83
2022-10-26T04:29:46.558Z,31.35
2022-10-26T04:30:48.618Z,26.88
2022-10-26T04:31:50.384Z,35.65
2022-10-26T04:32:52.248Z,31.75
2022-10-26T04:33:54.125Z,39.00
2022-10-26T04:34:56.064Z,29.52
2022-10-26T04:36:03.774Z,35.38
2022-10-26T04:37:05.816Z,38.13
2022-10-26T04:38:08.361Z,34.25
2022-10-26T04:39:10.203Z,33.15
2022-10-26T04:40:12.208Z,33.08
2022-10-26T04:41:16.875Z,32.03
2022-10-26T04:42:20.290Z,30.70
2022-10-26T04:43:22.338Z,28.40
2022-10-26T04:44:24.154Z,38.65
2022-10-26T04:45:28.561Z,30.58
2022-10-26T04:46:30.381Z,36.13
2022-10-26T04:47:32.144Z,27.27
2022-10-26T04:48:34.070Z,32.38
2022-10-26T04:49:35.984Z,26.13
2022-10-26T04:50:40.283Z,29.33
2022-10-26T04:51:42.065Z,29.77
2022-10-26T04:52:50.469Z,32.08
2022-10-26T04:53:54.869Z,37.83
2022-10-26T04:54:56.637Z,30.15
2022-10-26T04:55:59.662Z,41.25
2022-10-26T04:57:01.956Z,38.75
2022-10-26T04:58:04.265Z,48.42
2022-10-26T04:59:06.001Z,41.38
2022-10-26T05:00:08.759Z,27.77
2022-10-26T05:01:10.653Z,37.28
2022-10-26T05:02:14.217Z,30.60
2022-10-26T05:03:16.603Z,30.90
2022-10-26T05:04:18.642Z,36.20
2022-10-26T05:05:20.553Z,27.83
2022-10-26T05:06:22.939Z,28.77
2022-10-26T05:07:24.680Z,38.58
2022-10-26T05:08:28.441Z,36.35
2022-10-26T05:09:30.384Z,34.42
2022-10-26T05:10:32.496Z,30.95
2022-10-26T05:11:34.772Z,30.52
2022-10-26T05:12:41.320Z,31.05
2022-10-26T05:13:44.788Z,27.95
2022-10-26T05:14:46.580Z,33.67
2022-10-26T05:15:51.240Z,28.25
2022-10-26T05:16:56.089Z,25.63
2022-10-26T05:18:03.635Z,27.52
2022-10-26T05:19:05.564Z,30.67
2022-10-26T05:20:13.313Z,34.50
2022-10-26T05:21:24.793Z,29.55
2022-10-26T05:22:26.846Z,28.55
2022-10-26T05:23:28.898Z,27.70
2022-10-26T05:24:31.514Z,31.40
2022-10-26T05:25:36.711Z,28.40
2022-10-26T05:26:41.486Z,29.13
2022-10-26T05:27:48.848Z,28.95
2022-10-26T05:28:52.093Z,28.45
2022-10-26T05:29:54.080Z,37.97
2022-10-26T05:30:59.785Z,31.52
2022-10-26T05:32:01.618Z,38.78
2022-10-26T05:33:04.026Z,42.00
2022-10-26T05:34:06.054Z,34.25
2022-10-26T05:35:08.513Z,25.90
2022-10-26T05:36:10.481Z,34.22
2022-10-26T05:37:12.360Z,38.47
2022-10-26T05:38:17.219Z,38.55
2022-10-26T05:39:19.319Z,26.27
2022-10-26T05:40:22.489Z,35.72
2022-10-26T05:41:24.591Z,26.88
2022-10-26T05:42:26.479Z,32.33
2022-10-26T05:43:28.550Z,28.75
2022-10-26T05:44:30.477Z,29.30
2022-10-26T05:45:32.293Z,26.73
2022-10-26T05:46:34.077Z,23.55
2022-10-26T05:47:43.458Z,25.95
2022-10-26T05:48:45.364Z,31.23
2022-10-26T05:49:48.049Z,30.95
2022-10-26T05:50:50.010Z,28.67
2022-10-26T05:51:51.872Z,31.20
2022-10-26T05:52:55.562Z,28.60
2022-10-26T05:53:58.012Z,34.55
2022-10-26T05:55:00.002Z,28.38
2022-10-26T05:56:04.950Z,40.33
2022-10-26T05:57:13.064Z,34.25
2022-10-26T05:58:15.807Z,26.88
2022-10-26T05:59:18.214Z,22.95
2022-10-26T06:00:25.617Z,27.85
2022-10-26T06:01:37.856Z,31.48
2022-10-26T06:02:49.676Z,30.60
2022-10-26T06:04:16.280Z,27.38
2022-10-26T06:05:23.212Z,25.52
2022-10-26T06:06:27.161Z,31.75
2022-10-26T07:27:38.069Z,30.58
2022-10-26T07:28:43.905Z,22.83
2022-10-26T07:29:54.449Z,23.13
2022-10-26T07:33:24.458Z,17.10
2022-10-26T07:34:41.970Z,19.05
2022-10-26T07:39:04.612Z,21.30
2022-10-26T07:40:14.121Z,18.20
2022-10-26T07:41:15.916Z,16.85
2022-10-26T07:42:17.811Z,19.30
2022-10-26T07:43:19.826Z,20.88
2022-10-26T07:44:22.036Z,23.63
2022-10-26T07:45:24.787Z,24.77
2022-10-26T07:46:27.740Z,19.13
2022-10-26T07:47:29.567Z,17.08
2022-10-26T07:48:31.889Z,22.02
2022-10-26T07:49:34.628Z,14.38
2022-10-26T07:50:36.970Z,16.65
2022-10-26T07:51:38.933Z,18.40
2022-10-26T07:52:41.775Z,15.68
2022-10-26T07:53:43.995Z,15.50
2022-10-26T07:54:46.295Z,17.65
2022-10-26T07:55:58.037Z,16.88
2022-10-26T07:57:00.141Z,17.73
2022-10-26T07:58:02.534Z,24.90
2022-10-26T07:59:04.529Z,18.13
2022-10-26T08:00:09.262Z,17.38
2022-10-26T08:01:15.469Z,17.38
2022-10-26T08:02:17.515Z,26.13
2022-10-26T08:03:20.193Z,16.90
2022-10-26T08:04:22.401Z,13.50
2022-10-26T08:05:24.490Z,18.58
2022-10-26T08:06:26.397Z,18.23
2022-10-26T08:07:28.816Z,15.35
2022-10-26T08:08:31.967Z,19.30
2022-10-26T08:09:33.772Z,18.40
2022-10-26T08:10:35.888Z,18.17
2022-10-26T08:11:37.873Z,19.35
2022-10-26T08:12:39.880Z,24.27
2022-10-26T08:13:42.232Z,17.25
2022-10-26T08:14:44.484Z,16.20
2022-10-26T08:15:46.335Z,13.75
2022-10-26T08:16:52.446Z,18.73
2022-10-26T08:17:55.100Z,19.23
2022-10-26T08:18:57.805Z,18.52
2022-10-26T08:19:59.930Z,17.52
2022-10-26T08:21:11.381Z,22.73
2022-10-26T08:23:16.502Z,19.73
2022-10-26T08:24:19.979Z,23.00
2022-10-26T08:25:21.931Z,22.33
2022-10-26T08:26:24.302Z,17.80
2022-10-26T08:27:26.883Z,16.40
2022-10-26T08:28:30.094Z,22.85
2022-10-26T08:29:32.140Z,21.30
2022-10-26T08:31:41.584Z,22.90
2022-10-26T08:32:43.887Z,16.65
2022-10-26T08:33:45.849Z,15.23
2022-10-26T08:34:47.764Z,20.05
2022-10-26T08:35:55.309Z,22.35
2022-10-26T08:36:57.227Z,18.35
2022-10-26T08:37:59.249Z,18.23
2022-10-26T08:39:01.657Z,18.65
2022-10-26T08:40:04.848Z,20.38
2022-10-26T08:41:09.535Z,26.55
2022-10-26T08:42:23.075Z,21.85
2022-10-26T08:43:40.662Z,25.23
2022-10-26T08:44:51.209Z,24.15
2022-10-26T08:46:09.573Z,17.48
2022-10-26T08:47:23.810Z,23.38
2022-10-26T08:48:34.459Z,27.55
2022-10-26T08:50:21.969Z,23.88
2022-10-26T08:51:27.872Z,18.65
2022-10-26T08:52:42.208Z,22.30
2022-10-26T08:53:58.740Z,20.50
2022-10-26T08:55:03.085Z,17.35
2022-10-26T08:56:18.206Z,20.30
2022-10-26T08:57:28.699Z,21.27
2022-10-26T09:09:10.284Z,22.52
2022-10-26T09:12:12.245Z,17.13
2022-10-26T09:13:38.741Z,15.38
2022-10-26T09:14:49.413Z,19.05
2022-10-26T09:17:40.665Z,20.00
2022-10-26T09:20:18.463Z,16.60
2022-10-26T09:25:07.687Z,14.48
2022-10-26T09:26:16.759Z,21.77
2022-10-26T09:27:53.855Z,20.90
2022-10-26T09:29:15.935Z,11.75
2022-10-26T09:30:47.346Z,19.05
2022-10-26T09:32:11.444Z,12.40
2022-10-26T09:33:33.501Z,15.85
2022-10-26T09:35:04.760Z,15.63
2022-10-26T09:36:25.088Z,13.57
2022-10-26T09:37:40.751Z,18.85
2022-10-26T09:39:32.528Z,20.58
2022-10-26T09:41:25.142Z,16.52
2022-10-26T09:42:55.943Z,18.67
2022-10-26T09:44:21.529Z,27.20
2022-10-26T09:45:45.392Z,26.45
2022-10-26T09:47:33.403Z,22.58
2022-10-26T09:48:55.631Z,21.90
2022-10-26T09:50:33.852Z,20.02
2022-10-26T09:53:43.921Z,26.27
2022-10-26T09:54:55.421Z,20.60
2022-10-26T09:56:15.337Z,25.33
2022-10-26T09:57:23.446Z,24.33
2022-10-26T09:58:34.747Z,26.35
2022-10-26T10:00:01.269Z,25.42
2022-10-26T10:01:38.260Z,20.02
2022-10-26T10:03:08.422Z,20.35
2022-10-26T10:05:51.170Z,23.40
2022-10-26T10:07:40.135Z,18.85
2022-10-26T10:08:53.511Z,19.88
2022-10-26T10:10:22.314Z,22.05
2022-10-26T10:12:15.355Z,20.65
2022-10-26T10:13:37.131Z,18.10
2022-10-26T10:14:43.391Z,20.85
2022-10-26T10:16:11.112Z,15.25
2022-10-26T10:17:24.899Z,23.52
2022-10-26T10:18:35.415Z,19.25
2022-10-26T10:19:44.264Z,22.42
2022-10-26T10:21:22.369Z,25.73
2022-10-26T10:27:42.998Z,22.42
2022-10-26T10:28:03.306Z,18.23
2022-10-26T10:32:01.954Z,21.88
2022-10-26T10:33:19.049Z,14.25
2022-10-26T10:39:44.131Z,17.27
2022-10-26T10:46:30.553Z,16.58
2022-10-26T10:48:16.681Z,18.35
2022-10-26T10:49:28.752Z,18.20
2022-10-26T10:50:34.007Z,17.65
2022-10-26T10:51:40.451Z,22.55
2022-10-26T10:52:42.841Z,16.85
2022-10-26T10:53:57.633Z,18.77
2022-10-26T10:55:10.680Z,22.85
2022-10-26T10:56:39.759Z,22.02
2022-10-26T10:57:41.734Z,17.67
2022-10-26T10:59:15.818Z,22.67
2022-10-26T11:00:21.156Z,13.77
2022-10-26T11:01:27.367Z,19.45
2022-10-26T11:02:50.502Z,17.77
2022-10-26T11:04:12.675Z,16.08
2022-10-26T11:05:48.297Z,24.25
2022-10-26T11:06:52.487Z,20.25
2022-10-26T11:08:07.825Z,18.58
2022-10-26T11:09:13.807Z,20.83
2022-10-26T11:10:18.984Z,18.70
2022-10-26T11:11:28.011Z,17.27
2022-10-26T11:12:32.486Z,16.20
2022-10-26T11:13:44.436Z,16.70
2022-10-26T11:14:52.721Z,20.15
2022-10-26T11:16:01.137Z,16.80
2022-10-26T11:17:26.412Z,19.42
2022-10-26T11:18:40.842Z,19.42
2022-10-26T11:19:57.652Z,18.83
2022-10-26T11:21:12.794Z,22.98
2022-10-26T11:22:21.378Z,16.95
2022-10-26T11:23:23.762Z,17.67
2022-10-26T11:24:51.722Z,18.13
2022-10-26T11:25:59.534Z,14.18
2022-10-26T11:27:26.488Z,16.67
2022-10-26T11:29:02.458Z,13.77
2022-10-26T11:30:18.360Z,9.63
2022-10-26T11:31:50.135Z,12.63
2022-10-26T11:33:20.856Z,9.77
2022-10-26T11:34:39.575Z,10.27
2022-10-26T11:35:46.995Z,7.20
2022-10-26T11:36:54.220Z,6.78
2022-10-26T11:38:18.143Z,11.23
2022-10-26T11:39:46.959Z,6.57
2022-10-26T11:41:00.283Z,11.05
2022-10-26T11:42:39.285Z,14.18
2022-10-26T11:43:55.275Z,7.22
2022-10-26T11:45:22.438Z,8.63
2022-10-26T11:46:38.055Z,9.20
2022-10-26T11:48:20.577Z,12.85
2022-10-26T11:49:30.340Z,8.52
2022-10-26T11:50:40.709Z,7.78
2022-10-26T11:51:49.504Z,6.60
2022-10-26T11:53:01.072Z,6.10
2022-10-26T11:54:11.467Z,9.43
2022-10-26T11:55:13.705Z,10.10
2022-10-26T11:56:37.222Z,9.07
2022-10-26T11:57:42.288Z,13.10
2022-10-26T11:58:46.123Z,7.43
2022-10-26T12:00:06.816Z,13.00
2022-10-26T12:01:14.175Z,9.98
2022-10-26T12:02:21.224Z,10.75
2022-10-26T12:03:31.618Z,7.75
2022-10-26T12:04:39.263Z,5.95
2022-10-26T12:05:52.802Z,11.48
2022-10-26T12:06:57.712Z,6.70
2022-10-26T12:08:07.056Z,11.82
2022-10-26T12:09:18.400Z,10.50
2022-10-26T12:10:32.499Z,8.05
2022-10-26T12:11:57.696Z,7.97
2022-10-26T12:13:18.962Z,9.13
2022-10-26T12:14:53.404Z,7.50
2022-10-26T12:16:15.604Z,8.52
2022-10-26T12:17:38.103Z,6.50
2022-10-26T12:18:59.577Z,10.48
2022-10-26T12:21:10.911Z,7.38
2022-10-26T12:22:16.481Z,8.43
2022-10-26T12:23:28.276Z,5.53
2022-10-26T12:24:45.921Z,5.47
2022-10-26T12:25:47.909Z,6.55
2022-10-26T12:27:04.159Z,4.78
2022-10-26T12:28:25.970Z,5.63
2022-10-26T12:29:49.194Z,4.30
2022-10-26T12:30:51.701Z,6.40
2022-10-26T12:31:53.604Z,5.40
2022-10-26T12:33:01.075Z,7.75
2022-10-26T12:34:05.171Z,5.68
2022-10-26T12:35:31.075Z,6.90
2022-10-26T12:36:57.033Z,8.70
2022-10-26T12:38:00.641Z,8.15
2022-10-26T12:39:02.654Z,10.20
2022-10-26T12:40:32.685Z,4.85
2022-10-26T12:41:39.554Z,8.63
2022-10-26T12:42:42.029Z,6.50
2022-10-26T12:45:19.187Z,5.65
2022-10-26T12:46:42.465Z,8.57
2022-10-26T12:47:44.366Z,7.90
2022-10-26T12:48:51.929Z,7.05
2022-10-26T12:50:09.408Z,5.82
2022-10-26T12:51:25.663Z,5.15
2022-10-26T12:52:39.643Z,5.60
2022-10-26T12:53:45.875Z,7.97
2022-10-26T12:55:12.727Z,5.18
2022-10-26T12:56:20.993Z,3.13
2022-10-26T12:57:34.408Z,2.78
2022-10-26T12:59:04.464Z,7.70
2022-10-26T13:00:15.219Z,5.55
2022-10-26T13:03:07.907Z,6.78
2022-10-26T13:04:24.345Z,5.28
2022-10-26T13:05:44.525Z,4.82
2022-10-26T13:07:07.055Z,4.00
2022-10-26T13:08:12.167Z,4.10
2022-10-26T13:09:27.352Z,3.88
2022-10-26T13:10:29.670Z,5.82
2022-10-26T13:11:43.568Z,4.97
2022-10-26T13:12:57.584Z,8.77
2022-10-26T13:14:03.402Z,9.13
2022-10-26T13:15:18.906Z,5.78
2022-10-26T13:16:21.023Z,7.00
2022-10-26T13:17:28.695Z,7.10
2022-10-26T13:18:30.912Z,8.45
2022-10-26T13:19:41.607Z,5.18
2022-10-26T13:21:06.147Z,4.35
2022-10-26T13:22:24.492Z,8.95
2022-10-26T13:23:28.865Z,7.72
2022-10-26T13:25:42.745Z,5.07
2022-10-26T13:27:05.061Z,5.60
2022-10-26T13:28:30.421Z,5.57
2022-10-26T13:29:33.215Z,4.30
2022-10-26T13:30:42.704Z,7.78
2022-10-26T13:31:44.836Z,4.95
2022-10-26T13:32:57.936Z,6.45
2022-10-26T13:34:19.282Z,7.50
2022-10-26T13:36:41.531Z,5.90
2022-10-26T13:37:50.495Z,4.28
2022-10-26T13:38:55.589Z,3.92
2022-10-26T13:40:03.580Z,6.63
2022-10-26T13:41:20.568Z,8.70
2022-10-26T13:42:48.060Z,4.47
2022-10-26T13:43:52.936Z,2.88
2022-10-26T13:45:01.278Z,3.28
2022-10-26T13:46:10.241Z,3.13
2022-10-26T13:47:26.130Z,6.70
2022-10-26T13:48:42.170Z,5.95
2022-10-26T13:49:48.917Z,6.70
2022-10-26T13:52:17.451Z,3.50
2022-10-26T13:53:41.526Z,2.70
2022-10-26T13:54:55.354Z,5.15
2022-10-26T13:56:22.489Z,2.85
2022-10-26T13:57:34.166Z,4.30
2022-10-26T13:59:06.973Z,2.47
2022-10-26T14:00:24.030Z,3.08
2022-10-26T14:01:28.935Z,2.85
2022-10-26T14:02:36.828Z,3.55
2022-10-26T14:03:42.219Z,4.22
2022-10-26T14:04:52.673Z,5.20
2022-10-26T14:05:56.005Z,4.53
2022-10-26T14:07:00.604Z,4.70
2022-10-26T14:08:04.172Z,3.00
2022-10-26T14:09:21.802Z,3.35
2022-10-26T14:10:43.475Z,3.45
2022-10-26T14:11:55.574Z,2.50
2022-10-26T14:12:58.642Z,3.20
2022-10-26T14:14:02.484Z,6.65
2022-10-26T14:15:09.803Z,3.50
2022-10-26T14:16:18.247Z,3.65
2022-10-26T14:17:24.533Z,4.85
2022-10-26T14:18:29.738Z,2.80
2022-10-26T14:19:38.423Z,4.45
2022-10-26T14:20:40.750Z,4.45
2022-10-26T14:21:49.881Z,4.45
2022-10-26T14:22:52.899Z,4.35
2022-10-26T14:24:01.921Z,7.88
2022-10-26T14:25:04.391Z,5.78
2022-10-26T14:26:07.752Z,5.22
2022-10-26T14:27:23.013Z,3.78
2022-10-26T14:28:33.247Z,4.82
2022-10-26T14:29:38.400Z,4.82
2022-10-26T14:30:40.531Z,4.30
2022-10-26T14:31:42.856Z,3.95
2022-10-26T14:32:45.403Z,3.60
2022-10-26T14:33:50.548Z,4.88
2022-10-26T14:34:54.054Z,4.60
2022-10-26T14:35:57.065Z,3.03
2022-10-26T14:37:02.662Z,5.13
2022-10-26T14:38:09.464Z,3.70
2022-10-26T14:39:17.893Z,4.07
2022-10-26T14:40:26.634Z,3.60
2022-10-26T14:41:29.858Z,4.43
2022-10-26T14:42:36.146Z,5.00
2022-10-26T14:43:39.782Z,4.00
2022-10-26T14:44:43.413Z,5.75
2022-10-26T14:45:50.341Z,3.90
2022-10-26T14:46:53.120Z,3.28
2022-10-26T14:47:56.064Z,2.60
2022-10-26T14:49:00.326Z,4.50
2022-10-26T14:50:04.071Z,3.97
2022-10-26T14:51:17.299Z,5.00
2022-10-26T14:52:27.626Z,4.40
2022-10-26T14:53:38.456Z,5.20
2022-10-26T14:54:41.129Z,4.75
2022-10-26T14:55:50.651Z,3.25
2022-10-26T14:56:53.619Z,4.15
2022-10-26T14:58:08.662Z,3.80
2022-10-26T14:59:25.095Z,2.53
2022-10-26T15:00:33.669Z,3.40
2022-10-26T15:01:52.518Z,3.40
2022-10-26T15:02:56.861Z,3.80
2022-10-26T15:04:07.320Z,4.28
2022-10-26T15:05:24.226Z,4.85
2022-10-26T15:06:28.956Z,6.38
2022-10-26T15:07:38.655Z,4.32
2022-10-26T15:08:56.836Z,5.80
2022-10-26T15:10:00.523Z,6.95
2022-10-26T15:11:08.333Z,3.17
2022-10-26T15:12:36.028Z,5.40
2022-10-26T15:13:42.784Z,4.55
2022-10-26T15:14:45.367Z,9.65
2022-10-26T15:15:49.906Z,6.55
2022-10-26T15:16:58.714Z,3.65
2022-10-26T15:18:00.944Z,5.28
2022-10-26T15:19:19.866Z,3.08
2022-10-26T15:20:24.225Z,8.00
2022-10-26T15:21:45.722Z,3.97
2022-10-26T15:22:54.841Z,4.00
2022-10-26T15:23:58.029Z,3.40
2022-10-26T15:25:04.236Z,5.05
2022-10-26T15:26:11.105Z,9.10
2022-10-26T15:27:16.558Z,6.65
2022-10-26T15:28:29.308Z,5.55
2022-10-26T15:29:46.471Z,4.88
2022-10-26T15:31:01.490Z,5.65
2022-10-26T15:33:22.492Z,6.38
2022-10-26T15:34:24.639Z,3.95
2022-10-26T15:35:30.157Z,5.68
2022-10-26T15:36:34.014Z,4.55
2022-10-26T15:37:36.105Z,4.68
2022-10-26T15:38:38.483Z,5.55
2022-10-26T15:39:40.489Z,4.50
2022-10-26T15:40:45.396Z,5.82
2022-10-26T15:41:49.497Z,4.32
2022-10-26T15:42:54.498Z,3.90
2022-10-26T15:44:01.862Z,3.92
2022-10-26T15:45:04.304Z,3.92
2022-10-26T15:46:06.512Z,4.95
2022-10-26T15:47:19.228Z,5.13
2022-10-26T15:48:29.360Z,5.22
2022-10-26T15:49:31.367Z,4.33
2022-10-26T15:50:35.556Z,3.50
2022-10-26T15:51:40.193Z,3.17
2022-10-26T15:52:44.184Z,6.75
2022-10-26T15:53:49.465Z,5.32
2022-10-26T15:54:51.538Z,4.13
2022-10-26T15:55:55.646Z,2.90
2022-10-26T15:56:57.732Z,3.78
2022-10-26T15:58:02.736Z,6.30
2022-10-26T15:59:14.174Z,2.75
2022-10-26T16:00:19.428Z,3.85
2022-10-26T16:01:25.076Z,3.88
2022-10-26T16:02:28.175Z,6.32
2022-10-26T16:03:30.363Z,4.05
2022-10-26T16:04:32.387Z,4.78
2022-10-26T16:05:34.394Z,4.20
2022-10-26T16:06:36.984Z,3.05
2022-10-26T16:07:40.345Z,4.07
2022-10-26T16:08:46.374Z,2.47
2022-10-26T16:09:48.983Z,2.92
2022-10-26T16:10:52.308Z,3.50
2022-10-26T16:11:54.643Z,5.90
2022-10-26T16:12:57.125Z,6.50
2022-10-26T16:14:03.592Z,4.68
2022-10-26T16:15:06.730Z,3.35
2022-10-26T16:16:17.250Z,3.08
2022-10-26T16:17:21.725Z,5.35
2022-10-26T16:18:24.648Z,5.05
2022-10-26T16:19:51.163Z,4.47
2022-10-26T16:23:19.477Z,7.25
2022-10-26T16:26:36.182Z,7.72
2022-10-26T16:32:12.494Z,7.40
2022-10-26T16:37:56.556Z,7.85
2022-10-26T16:45:00.208Z,4.65
2022-10-26T16:46:24.745Z,6.15
2022-10-26T16:47:45.419Z,4.25
2022-10-26T16:48:55.561Z,4.57
2022-10-26T16:50:26.491Z,6.55
2022-10-26T16:51:43.794Z,5.88
2022-10-26T16:53:16.479Z,7.22
2022-10-26T16:54:40.185Z,6.45
2022-10-26T16:55:51.076Z,11.65
2022-10-26T16:57:02.994Z,7.70
2022-10-26T16:58:14.953Z,8.35
2022-10-26T17:01:28.888Z,6.70
2022-10-26T17:03:46.284Z,5.18
2022-10-26T17:07:07.550Z,8.55
2022-10-26T17:08:10.941Z,6.03
2022-10-26T17:09:18.629Z,6.80
2022-10-26T17:30:34.236Z,7.70
2022-10-26T17:42:11.265Z,8.07
2022-10-26T17:43:23.900Z,10.48
2022-10-26T17:44:46.686Z,11.43
2022-10-26T17:48:13.454Z,6.35
2022-10-26T17:56:54.457Z,8.70
2022-10-26T18:01:01.774Z,8.70
2022-10-26T18:10:32.791Z,5.78
2022-10-26T18:12:14.854Z,3.40
2022-10-26T18:26:41.185Z,3.35
2022-10-26T18:30:37.059Z,7.10
2022-10-26T18:31:41.839Z,9.10
2022-10-26T18:46:00.698Z,9.13
2022-10-26T18:50:13.797Z,5.32
2022-10-26T18:52:48.607Z,11.57
2022-10-26T18:53:53.749Z,8.55
2022-10-26T18:57:01.263Z,10.02
2022-10-26T19:21:41.774Z,13.05
2022-10-26T19:22:43.818Z,14.15
